createdAt,value
2018-03-19T00:02:07.786Z,57.63
2018-03-19T00:04:37.503Z,53.80
2018-03-19T00:07:06.973Z,51.63
2018-03-19T00:09:36.289Z,52.33
2018-03-19T00:12:05.626Z,51.73
2018-03-19T00:14:35.076Z,51.33
2018-03-19T00:17:04.414Z,54.83
2018-03-19T00:19:34.591Z,53.83
2018-03-19T00:22:04.588Z,57.10
2018-03-19T00:24:33.936Z,58.30
2018-03-19T00:27:05.565Z,64.27
2018-03-19T00:29:35.338Z,63.03
2018-03-19T00:32:04.816Z,65.03
2018-03-19T00:34:34.970Z,62.43
2018-03-19T00:37:05.264Z,63.77
2018-03-19T00:39:34.727Z,69.57
2018-03-19T00:42:04.850Z,66.90
2018-03-19T00:44:34.407Z,63.77
2018-03-19T00:47:04.017Z,63.57
2018-03-19T00:49:34.473Z,59.57
2018-03-19T00:52:04.362Z,60.87
2018-03-19T00:54:34.765Z,61.67
2018-03-19T00:57:04.368Z,61.70
2018-03-19T00:59:33.756Z,63.40
2018-03-19T01:02:03.951Z,68.17
2018-03-19T01:04:39.722Z,66.20
2018-03-19T01:07:10.377Z,63.33
2018-03-19T01:09:39.700Z,59.57
2018-03-19T01:12:09.059Z,67.77
2018-03-19T01:14:38.763Z,60.37
2018-03-19T01:17:08.282Z,55.53
2018-03-19T01:37:42.830Z,54.50
2018-03-19T01:40:12.250Z,52.60
2018-03-19T01:42:41.766Z,50.30
2018-03-19T01:45:11.596Z,51.17
2018-03-19T01:47:41.024Z,55.60
2018-03-19T01:50:10.524Z,63.93
2018-03-19T01:52:56.485Z,64.33
2018-03-19T01:58:13.769Z,58.40
2018-03-19T02:00:45.495Z,65.37
2018-03-19T02:05:53.215Z,61.63
2018-03-19T02:08:22.728Z,66.63
2018-03-19T02:10:54.856Z,65.23
2018-03-19T02:13:40.269Z,64.23
2018-03-19T02:16:11.091Z,67.80
2018-03-19T02:18:41.989Z,70.83
2018-03-19T02:21:12.860Z,69.80
2018-03-19T02:23:42.962Z,69.97
2018-03-19T02:26:12.383Z,74.63
2018-03-19T02:28:41.966Z,72.97
2018-03-19T02:31:11.734Z,78.97
2018-03-19T02:33:41.591Z,77.03
2018-03-19T02:36:11.137Z,83.43
2018-03-19T02:38:40.917Z,78.77
2018-03-19T02:41:10.319Z,77.27
2018-03-19T02:43:39.939Z,76.57
2018-03-19T02:46:09.564Z,72.67
2018-03-19T02:48:39.480Z,116.93
2018-03-19T02:51:24.663Z,72.13
2018-03-19T02:53:55.876Z,71.73
2018-03-19T02:56:26.136Z,70.93
2018-03-19T02:58:57.183Z,77.27
2018-03-19T03:04:12.841Z,75.60
2018-03-19T03:06:45.047Z,73.10
2018-03-19T03:09:14.701Z,75.40
2018-03-19T03:11:44.106Z,69.90
2018-03-19T03:14:13.570Z,110.07
2018-03-19T03:16:48.734Z,76.27
2018-03-19T03:19:19.577Z,70.47
2018-03-19T03:21:49.952Z,71.53
2018-03-19T03:24:19.888Z,81.73
2018-03-19T03:26:49.521Z,85.40
2018-03-19T03:35:48.615Z,70.20
2018-03-19T03:38:39.028Z,72.77
2018-03-19T03:51:05.112Z,80.00
2018-03-19T03:53:38.470Z,78.67
2018-03-19T03:56:13.865Z,75.67
2018-03-19T04:07:22.143Z,82.27
2018-03-19T04:09:51.829Z,83.13
2018-03-19T04:15:26.651Z,74.13
2018-03-19T04:18:13.959Z,71.07
2018-03-19T04:21:15.932Z,67.37
2018-03-19T04:23:48.312Z,64.90
2018-03-19T04:26:20.775Z,68.03
2018-03-19T04:31:30.870Z,69.77
2018-03-19T04:36:43.342Z,76.20
2018-03-19T04:42:06.706Z,76.37
2018-03-19T04:44:36.127Z,76.70
2018-03-19T04:47:05.455Z,79.50
2018-03-19T04:49:34.878Z,145.07
2018-03-19T04:52:05.846Z,84.73
2018-03-19T04:54:35.253Z,74.70
2018-03-19T04:57:04.643Z,71.87
2018-03-19T05:00:09.713Z,68.50
2018-03-19T05:02:39.558Z,86.87
2018-03-19T05:05:09.174Z,129.00
2018-03-19T05:07:38.876Z,79.53
2018-03-19T05:10:08.583Z,116.43
2018-03-19T05:12:39.026Z,86.00
2018-03-19T05:15:08.755Z,103.07
2018-03-19T05:17:38.829Z,72.03
2018-03-19T05:20:08.369Z,67.23
2018-03-19T05:22:37.943Z,66.37
2018-03-19T05:25:08.522Z,66.63
2018-03-19T05:27:38.147Z,65.07
2018-03-19T05:30:07.678Z,62.10
2018-03-19T05:32:38.663Z,66.27
2018-03-19T05:38:30.517Z,63.97
2018-03-19T05:40:59.907Z,62.10
2018-03-19T05:43:29.420Z,60.00
2018-03-19T05:49:19.952Z,61.93
2018-03-19T05:51:49.396Z,60.53
2018-03-19T05:54:18.791Z,62.00
2018-03-19T05:56:48.172Z,58.63
2018-03-19T06:02:39.756Z,53.87
2018-03-19T06:05:09.450Z,53.57
2018-03-19T06:07:38.767Z,52.73
2018-03-19T06:10:08.321Z,52.17
2018-03-19T06:12:37.778Z,57.13
2018-03-19T06:15:07.217Z,52.30
2018-03-19T06:17:36.588Z,51.37
2018-03-19T06:20:10.167Z,50.77
2018-03-19T06:22:39.629Z,56.73
2018-03-19T06:25:08.961Z,116.70
2018-03-19T06:27:39.419Z,120.07
2018-03-19T06:30:08.909Z,168.50
2018-03-19T06:32:38.496Z,80.47
2018-03-19T06:35:08.802Z,82.50
2018-03-19T06:37:38.190Z,56.37
2018-03-19T06:40:07.614Z,54.10
2018-03-19T06:42:36.948Z,57.27
2018-03-19T06:45:06.421Z,56.93
2018-03-19T06:47:35.956Z,77.23
2018-03-19T06:50:05.455Z,102.20
2018-03-19T06:52:34.881Z,55.83
2018-03-19T06:55:04.204Z,61.67
2018-03-19T06:57:33.829Z,60.97
2018-03-19T07:00:03.213Z,81.90
2018-03-19T07:02:33.266Z,97.17
2018-03-19T07:05:03.585Z,101.40
2018-03-19T07:07:32.926Z,109.87
2018-03-19T07:10:02.363Z,86.90
2018-03-19T07:12:31.696Z,63.13
2018-03-19T07:15:01.099Z,93.93
2018-03-19T07:17:30.374Z,67.10
2018-03-19T07:19:59.814Z,63.37
2018-03-19T07:22:29.919Z,60.37
2018-03-19T07:24:59.301Z,58.40
2018-03-19T07:27:28.672Z,56.67
2018-03-19T07:29:58.096Z,58.00
2018-03-19T07:32:27.452Z,68.87
2018-03-19T07:34:56.967Z,62.77
2018-03-19T07:37:26.275Z,66.67
2018-03-19T07:39:55.674Z,64.57
2018-03-19T07:42:25.156Z,63.30
2018-03-19T07:44:54.617Z,57.40
2018-03-19T07:47:23.981Z,62.53
2018-03-19T07:49:54.690Z,63.80
2018-03-19T07:52:24.131Z,62.83
2018-03-19T07:54:53.421Z,66.40
2018-03-19T07:57:23.653Z,64.60
2018-03-19T07:59:55.409Z,63.77
2018-03-19T08:02:24.881Z,66.43
2018-03-19T08:04:54.177Z,74.23
2018-03-19T08:07:24.373Z,72.13
2018-03-19T08:09:53.765Z,70.77
2018-03-19T08:12:23.171Z,72.83
2018-03-19T08:14:52.514Z,74.90
2018-03-19T08:17:22.009Z,74.33
2018-03-19T08:19:51.278Z,75.10
2018-03-19T08:22:20.619Z,80.13
2018-03-19T08:24:50.112Z,76.77
2018-03-19T08:27:19.614Z,92.43
2018-03-19T08:29:49.101Z,72.07
2018-03-19T08:32:18.562Z,90.67
2018-03-19T08:34:48.046Z,68.70
2018-03-19T08:37:17.479Z,69.53
2018-03-19T08:39:46.959Z,65.53
2018-03-19T08:42:16.294Z,69.20
2018-03-19T08:44:45.673Z,66.83
2018-03-19T08:47:15.034Z,68.33
2018-03-19T08:49:44.446Z,65.80
2018-03-19T08:52:13.826Z,75.67
2018-03-19T08:54:43.292Z,66.03
2018-03-19T08:57:14.767Z,66.30
2018-03-19T08:59:44.198Z,65.67
2018-03-19T09:02:13.603Z,66.83
2018-03-19T09:04:42.936Z,72.83
2018-03-19T09:07:12.492Z,72.57
2018-03-19T09:09:41.787Z,65.37
2018-03-19T09:12:11.161Z,64.93
2018-03-19T09:14:41.323Z,69.70
2018-03-19T09:17:10.774Z,67.47
2018-03-19T09:19:40.103Z,66.90
2018-03-19T09:25:40.361Z,68.83
2018-03-19T09:28:09.730Z,68.00
2018-03-19T09:30:42.047Z,61.60
2018-03-19T09:33:11.440Z,58.37
2018-03-19T09:35:41.213Z,62.00
2018-03-19T09:38:12.968Z,59.03
2018-03-19T09:40:42.433Z,59.20
2018-03-19T09:43:12.976Z,62.67
2018-03-19T09:45:42.375Z,58.43
2018-03-19T09:48:11.729Z,56.17
2018-03-19T09:50:41.966Z,56.40
2018-03-19T09:53:11.316Z,60.33
2018-03-19T09:55:40.687Z,56.77
2018-03-19T09:58:10.887Z,59.33
2018-03-19T10:00:40.325Z,60.83
2018-03-19T10:03:09.634Z,58.17
2018-03-19T10:05:39.111Z,56.07
2018-03-19T10:08:08.389Z,58.63
2018-03-19T10:10:38.572Z,75.00
2018-03-19T10:13:07.935Z,64.50
2018-03-19T10:15:37.403Z,64.13
2018-03-19T10:18:06.748Z,55.80
2018-03-19T10:23:57.946Z,56.63
2018-03-19T10:26:27.368Z,56.57
2018-03-19T10:28:56.896Z,57.40
2018-03-19T10:31:26.486Z,56.50
2018-03-19T10:33:56.005Z,55.90
2018-03-19T10:36:25.421Z,56.33
2018-03-19T10:38:55.670Z,55.43
2018-03-19T10:41:25.224Z,54.47
2018-03-19T10:43:54.619Z,55.73
2018-03-19T10:46:24.177Z,55.80
2018-03-19T10:48:53.608Z,56.93
2018-03-19T10:51:23.218Z,56.90
2018-03-19T10:53:52.904Z,53.47
2018-03-19T10:56:22.902Z,53.43
2018-03-19T10:58:54.497Z,54.07
2018-03-19T11:01:29.225Z,54.80
2018-03-19T11:04:02.780Z,56.13
2018-03-19T11:06:38.535Z,59.07
2018-03-19T11:09:13.330Z,58.63
2018-03-19T11:11:42.851Z,64.07
2018-03-19T11:14:12.259Z,70.97
2018-03-19T11:16:41.822Z,67.33
2018-03-19T11:19:11.275Z,67.27
2018-03-19T11:21:40.837Z,102.33
2018-03-19T11:24:10.328Z,138.30
2018-03-19T11:26:40.251Z,143.00
2018-03-19T11:29:09.842Z,139.63
2018-03-19T11:31:39.293Z,130.20
2018-03-19T11:34:08.894Z,118.03
2018-03-19T11:36:38.531Z,113.03
2018-03-19T11:39:08.548Z,90.67
2018-03-19T11:41:39.111Z,95.40
2018-03-19T11:44:08.603Z,81.67
2018-03-19T11:46:38.211Z,79.50
2018-03-19T11:49:08.122Z,78.30
2018-03-19T11:51:37.669Z,74.40
2018-03-19T11:54:08.125Z,73.57
2018-03-19T11:56:37.690Z,84.30
2018-03-19T11:59:07.182Z,92.90
2018-03-19T12:01:37.679Z,95.83
2018-03-19T12:04:07.933Z,102.87
2018-03-19T12:06:37.571Z,101.43
2018-03-19T12:09:14.832Z,79.43
2018-03-19T12:11:44.404Z,73.93
2018-03-19T12:14:13.933Z,71.77
2018-03-19T12:16:43.442Z,69.57
2018-03-19T12:19:13.094Z,68.70
2018-03-19T12:21:42.556Z,68.23
2018-03-19T12:24:12.842Z,82.37
2018-03-19T12:26:42.356Z,72.97
2018-03-19T12:32:32.814Z,61.60
2018-03-19T12:35:02.229Z,58.97
2018-03-19T12:37:31.607Z,60.27
2018-03-19T12:40:01.198Z,58.73
2018-03-19T12:42:31.196Z,59.33
2018-03-19T12:45:00.799Z,54.20
2018-03-19T12:47:30.203Z,57.50
2018-03-19T12:50:00.315Z,53.20
2018-03-19T12:52:31.764Z,54.03
2018-03-19T12:57:47.067Z,49.60
2018-03-19T13:00:16.734Z,49.50
2018-03-19T13:02:47.376Z,44.87
2018-03-19T13:05:16.877Z,45.03
2018-03-19T13:07:46.263Z,41.33
2018-03-19T13:10:15.764Z,41.50
2018-03-19T13:12:45.321Z,45.63
2018-03-19T13:15:16.264Z,42.90
2018-03-19T13:17:45.763Z,43.23
2018-03-19T13:20:16.195Z,41.23
2018-03-19T13:22:47.920Z,41.73
2018-03-19T13:25:19.485Z,41.87
2018-03-19T13:27:50.666Z,44.37
2018-03-19T13:30:22.020Z,44.53
2018-03-19T13:32:52.372Z,46.00
2018-03-19T13:35:23.032Z,42.40
2018-03-19T13:37:53.009Z,43.10
2018-03-19T13:40:23.221Z,44.67
2018-03-19T13:42:54.477Z,45.13
2018-03-19T13:45:26.780Z,44.27
2018-03-19T13:47:57.177Z,44.83
2018-03-19T13:50:26.698Z,46.77
2018-03-19T13:52:56.114Z,49.80
2018-03-19T13:55:26.867Z,46.07
2018-03-19T13:57:57.218Z,46.40
2018-03-19T14:00:27.938Z,46.93
2018-03-19T14:02:57.545Z,48.33
2018-03-19T14:05:27.087Z,47.80
2018-03-19T14:08:00.434Z,45.43
2018-03-19T14:10:30.432Z,49.27
2018-03-19T14:13:00.773Z,46.80
2018-03-19T14:15:30.282Z,49.00
2018-03-19T14:17:59.787Z,50.20
2018-03-19T14:20:29.266Z,50.00
2018-03-19T14:22:58.901Z,52.83
2018-03-19T14:25:28.308Z,51.83
2018-03-19T14:27:59.428Z,50.10
2018-03-19T14:30:29.162Z,51.23
2018-03-19T14:32:58.798Z,52.60
2018-03-19T14:35:28.271Z,53.07
2018-03-19T14:37:57.971Z,54.20
2018-03-19T14:40:27.537Z,42.10
2018-03-19T14:42:57.729Z,45.50
2018-03-19T14:45:27.319Z,49.53
2018-03-19T14:47:56.802Z,31.90
2018-03-19T14:50:26.423Z,30.97
2018-03-19T14:52:57.454Z,35.57
2018-03-19T14:55:26.860Z,34.40
2018-03-19T14:58:00.555Z,35.83
2018-03-19T15:00:30.017Z,37.07
2018-03-19T15:02:59.591Z,23.00
2018-03-19T15:05:29.014Z,22.30
2018-03-19T15:07:58.500Z,20.37
2018-03-19T15:10:27.894Z,27.53
2018-03-19T15:12:57.349Z,19.43
2018-03-19T15:15:26.995Z,21.37
2018-03-19T15:17:56.403Z,21.70
2018-03-19T15:20:25.968Z,24.87
2018-03-19T15:22:56.210Z,25.13
2018-03-19T15:25:25.639Z,25.40
2018-03-19T15:27:55.139Z,27.37
2018-03-19T15:30:24.660Z,23.53
2018-03-19T15:32:54.037Z,27.03
2018-03-19T15:35:23.923Z,25.27
2018-03-19T15:37:54.186Z,28.53
2018-03-19T15:40:23.651Z,25.17
2018-03-19T15:42:53.260Z,25.20
2018-03-19T15:48:44.130Z,29.67
2018-03-19T15:51:13.947Z,28.27
2018-03-19T15:53:43.322Z,23.97
2018-03-19T15:59:36.595Z,33.80
2018-03-19T16:02:05.950Z,26.63
2018-03-19T16:04:35.351Z,23.00
2018-03-19T16:07:04.696Z,20.03
2018-03-19T16:09:35.245Z,21.47
2018-03-19T16:12:07.013Z,22.03
2018-03-19T16:14:36.929Z,19.90
2018-03-19T16:17:06.281Z,18.70
2018-03-19T16:19:35.552Z,19.57
2018-03-19T16:22:04.856Z,18.87
2018-03-19T16:24:34.302Z,19.17
2018-03-19T16:27:04.770Z,19.80
2018-03-19T16:29:34.085Z,19.12
2018-03-19T16:32:04.465Z,20.75
2018-03-19T16:37:55.297Z,21.15
2018-03-19T16:40:24.727Z,23.35
2018-03-19T16:42:54.039Z,20.58
2018-03-19T16:45:23.612Z,21.03
2018-03-19T16:47:53.029Z,20.73
2018-03-19T16:50:22.470Z,21.43
2018-03-19T16:52:52.713Z,22.90
2018-03-19T16:55:22.209Z,22.17
2018-03-19T16:57:51.561Z,19.70
2018-03-19T17:00:21.090Z,20.13
2018-03-19T17:02:50.437Z,21.93
2018-03-19T17:05:20.629Z,20.87
2018-03-19T17:07:51.160Z,22.17
2018-03-19T17:10:21.697Z,18.05
2018-03-19T17:12:53.059Z,29.08
2018-03-19T17:15:22.646Z,21.40
2018-03-19T17:17:53.251Z,24.12
2018-03-19T17:20:22.758Z,31.48
2018-03-19T17:22:52.769Z,20.33
2018-03-19T17:25:24.418Z,19.15
2018-03-19T17:27:53.877Z,27.42
2018-03-19T17:30:24.360Z,22.33
2018-03-19T17:32:53.777Z,40.12
2018-03-19T17:35:23.199Z,22.52
2018-03-19T17:37:53.434Z,24.30
2018-03-19T17:40:23.053Z,20.95
2018-03-19T17:42:52.500Z,26.80
2018-03-19T17:45:21.976Z,21.60
2018-03-19T17:47:54.046Z,22.60
2018-03-19T17:50:23.564Z,23.97
2018-03-19T17:52:53.040Z,23.10
2018-03-19T17:55:22.385Z,25.27
2018-03-19T17:57:51.862Z,22.43
2018-03-19T18:00:21.983Z,22.70
2018-03-19T18:02:51.429Z,21.95
2018-03-19T18:05:22.089Z,24.55
2018-03-19T18:07:51.686Z,21.12
2018-03-19T18:10:22.004Z,21.93
2018-03-19T18:12:51.672Z,26.60
2018-03-19T18:15:21.937Z,24.83
2018-03-19T18:17:51.460Z,41.90
2018-03-19T18:20:21.031Z,33.15
2018-03-19T18:22:50.673Z,35.97
2018-03-19T18:25:20.106Z,27.33
2018-03-19T18:27:50.375Z,22.50
2018-03-19T18:30:19.766Z,42.95
2018-03-19T18:32:49.219Z,37.20
2018-03-19T18:35:18.866Z,24.27
2018-03-19T18:37:48.608Z,24.20
2018-03-19T18:40:18.082Z,24.63
2018-03-19T18:42:47.474Z,22.77
2018-03-19T18:45:16.910Z,23.80
2018-03-19T18:47:46.341Z,24.25
2018-03-19T18:50:15.917Z,27.67
2018-03-19T18:52:45.357Z,27.23
2018-03-19T18:55:14.718Z,28.92
2018-03-19T18:57:44.325Z,28.53
2018-03-19T19:00:14.087Z,27.08
2018-03-19T19:02:43.554Z,31.23
2018-03-19T19:05:13.071Z,28.63
2018-03-19T19:07:42.530Z,30.85
2018-03-19T19:10:11.887Z,28.20
2018-03-19T19:12:44.065Z,27.75
2018-03-19T19:15:13.598Z,28.92
2018-03-19T19:17:43.041Z,31.17
2018-03-19T19:20:44.544Z,32.10
2018-03-19T19:23:16.686Z,28.25
2018-03-19T19:25:46.216Z,40.80
2018-03-19T19:28:22.855Z,30.62
2018-03-19T19:30:52.699Z,41.42
2018-03-19T19:33:26.406Z,46.53
2018-03-19T19:42:00.720Z,31.73
2018-03-19T19:44:32.086Z,35.40
2018-03-19T19:47:01.772Z,30.67
2018-03-19T19:49:31.089Z,28.97
2018-03-19T19:52:00.978Z,31.10
2018-03-19T19:54:30.621Z,29.73
2018-03-19T19:56:59.915Z,33.87
2018-03-19T19:59:29.425Z,31.17
2018-03-19T20:02:01.776Z,34.60
2018-03-19T20:04:32.784Z,32.00
2018-03-19T20:07:02.408Z,33.33
2018-03-19T20:09:36.445Z,32.73
2018-03-19T20:12:05.875Z,34.00
2018-03-19T20:14:44.578Z,49.43
2018-03-19T20:17:24.678Z,34.80
2018-03-19T20:19:54.169Z,34.00
2018-03-19T20:22:44.777Z,34.22
2018-03-19T20:25:33.224Z,35.53
2018-03-19T20:28:23.471Z,41.30
2018-03-19T20:31:00.897Z,44.27
2018-03-19T20:33:33.332Z,41.00
2018-03-19T20:36:20.668Z,39.77
2018-03-19T20:38:52.708Z,42.90
2018-03-19T20:41:37.006Z,44.47
2018-03-19T20:44:06.849Z,43.77
2018-03-19T20:46:40.139Z,48.10
2018-03-19T20:49:29.958Z,43.00
2018-03-19T20:55:32.577Z,44.87
2018-03-19T20:58:06.839Z,43.13
2018-03-19T21:00:41.854Z,47.27
2018-03-19T21:03:11.379Z,46.90
2018-03-19T21:05:42.079Z,51.67
2018-03-19T21:08:12.889Z,45.33
2018-03-19T21:10:42.425Z,46.57
2018-03-19T21:13:13.441Z,45.37
2018-03-19T21:15:42.960Z,59.37
2018-03-19T21:18:13.406Z,44.03
2018-03-19T21:20:42.945Z,46.23
2018-03-19T21:23:12.507Z,45.87
2018-03-19T21:25:42.014Z,47.60
2018-03-19T21:28:11.727Z,44.67
2018-03-19T21:30:41.186Z,46.57
2018-03-19T21:33:10.643Z,48.00
2018-03-19T21:35:40.196Z,41.97
2018-03-19T21:38:11.298Z,22.80
2018-03-19T21:40:41.469Z,19.00
2018-03-19T21:43:11.156Z,20.50
2018-03-19T21:45:41.780Z,20.23
2018-03-19T21:48:13.086Z,14.27
2018-03-19T21:50:42.556Z,14.07
2018-03-19T21:53:12.285Z,16.00
2018-03-19T21:55:41.918Z,24.23
2018-03-19T21:58:11.384Z,25.80
2018-03-19T22:00:40.882Z,43.87
2018-03-19T22:03:10.396Z,52.23
2018-03-19T22:05:39.936Z,56.87
2018-03-19T22:08:09.473Z,58.90
2018-03-19T22:10:41.145Z,66.13
2018-03-19T22:13:12.604Z,53.43
2018-03-19T22:15:42.368Z,48.20
2018-03-19T22:18:11.813Z,49.00
2018-03-19T22:20:45.609Z,55.50
2018-03-19T22:23:15.178Z,48.23
2018-03-19T22:29:05.468Z,52.60
2018-03-19T22:31:35.128Z,50.43
2018-03-19T22:34:04.756Z,52.53
2018-03-19T22:36:34.845Z,53.57
2018-03-19T22:39:04.505Z,52.57
2018-03-19T22:41:34.017Z,76.13
2018-03-19T22:44:03.681Z,59.40
2018-03-19T22:46:33.190Z,53.60
2018-03-19T22:49:02.531Z,49.53
2018-03-19T22:51:32.657Z,57.83
2018-03-19T22:54:02.216Z,53.93
2018-03-19T22:56:32.630Z,50.67
2018-03-19T22:59:01.979Z,51.90
2018-03-19T23:01:33.264Z,61.43
2018-03-19T23:04:02.780Z,58.93
2018-03-19T23:06:32.279Z,63.40
2018-03-19T23:09:03.482Z,52.27
2018-03-19T23:11:32.981Z,55.77
2018-03-19T23:14:02.330Z,54.20
2018-03-19T23:16:32.052Z,56.23
2018-03-19T23:19:02.574Z,53.20
2018-03-19T23:24:12.096Z,53.63
2018-03-19T23:26:44.980Z,52.30
2018-03-19T23:29:14.517Z,51.87
2018-03-19T23:31:51.680Z,52.17
2018-03-19T23:34:21.330Z,55.50
2018-03-19T23:39:24.216Z,58.00
2018-03-19T23:41:53.552Z,63.13
2018-03-19T23:44:23.248Z,54.47
2018-03-19T23:46:52.738Z,53.20
2018-03-19T23:49:22.131Z,56.60
2018-03-19T23:51:51.598Z,57.67
2018-03-19T23:54:33.022Z,60.37
2018-03-19T23:57:02.417Z,60.00
2018-03-19T23:59:32.486Z,61.73
